sensor_id;sensor_type;location;lat;lon;timestamp;pressure;altitude;pressure_sealevel;temperature;humidity
18821;BME280;9539;59.332;18.034;2022-07-01T00:00:00;101207.38;;;21.45;100.00
18821;BME280;9539;59.332;18.034;2022-07-01T00:02:27;101221.38;;;21.59;100.00
18821;BME280;9539;59.332;18.034;2022-07-01T00:04:53;101231.88;;;21.44;100.00
18821;BME280;9539;59.332;18.034;2022-07-01T00:07:20;101224.41;;;21.56;100.00
18821;BME280;9539;59.332;18.034;2022-07-01T00:09:48;101228.56;;;21.50;100.00
18821;BME280;9539;59.332;18.034;2022-07-01T00:12:16;101231.50;;;21.57;100.00
18821;BME280;9539;59.332;18.034;2022-07-01T00:14:43;101232.50;;;21.56;100.00
18821;BME280;9539;59.332;18.034;2022-07-01T00:17:09;101233.41;;;21.46;100.00
18821;BME280;9539;59.332;18.034;2022-07-01T00:19:36;101230.88;;;21.45;100.00
18821;BME280;9539;59.332;18.034;2022-07-01T00:22:03;101243.53;;;21.44;100.00
18821;BME280;9539;59.332;18.034;2022-07-01T00:24:29;101224.19;;;21.39;100.00
18821;BME280;9539;59.332;18.034;2022-07-01T00:26:56;101231.34;;;21.03;100.00
18821;BME280;9539;59.332;18.034;2022-07-01T00:29:24;101238.97;;;21.18;100.00
18821;BME280;9539;59.332;18.034;2022-07-01T00:31:51;101229.56;;;21.22;100.00
18821;BME280;9539;59.332;18.034;2022-07-01T00:34:18;101225.72;;;21.14;100.00
18821;BME280;9539;59.332;18.034;2022-07-01T00:36:45;101223.16;;;21.13;100.00
18821;BME280;9539;59.332;18.034;2022-07-01T00:39:11;101226.34;;;21.18;100.00
18821;BME280;9539;59.332;18.034;2022-07-01T00:41:38;101210.06;;;21.28;100.00
18821;BME280;9539;59.332;18.034;2022-07-01T00:44:05;101208.38;;;21.27;100.00
18821;BME280;9539;59.332;18.034;2022-07-01T00:46:33;101211.66;;;21.21;100.00
18821;BME280;9539;59.332;18.034;2022-07-01T00:49:00;101209.53;;;21.24;100.00
18821;BME280;9539;59.332;18.034;2022-07-01T00:51:27;101189.69;;;21.16;100.00
18821;BME280;9539;59.332;18.034;2022-07-01T00:53:54;101218.47;;;21.25;100.00
18821;BME280;9539;59.332;18.034;2022-07-01T00:56:23;101199.72;;;21.23;100.00
18821;BME280;9539;59.332;18.034;2022-07-01T00:58:50;101199.06;;;21.11;100.00
18821;BME280;9539;59.332;18.034;2022-07-01T01:01:19;101171.22;;;21.11;100.00
18821;BME280;9539;59.332;18.034;2022-07-01T01:03:49;101193.25;;;21.34;100.00
18821;BME280;9539;59.332;18.034;2022-07-01T01:06:16;101195.81;;;21.35;100.00
18821;BME280;9539;59.332;18.034;2022-07-01T01:08:42;101190.88;;;21.31;100.00
18821;BME280;9539;59.332;18.034;2022-07-01T01:11:10;101188.72;;;21.34;100.00
18821;BME280;9539;59.332;18.034;2022-07-01T01:13:36;101190.50;;;21.26;100.00
18821;BME280;9539;59.332;18.034;2022-07-01T01:16:04;101178.53;;;21.28;100.00
18821;BME280;9539;59.332;18.034;2022-07-01T01:18:30;101187.00;;;21.33;100.00
18821;BME280;9539;59.332;18.034;2022-07-01T01:21:00;101183.69;;;21.39;100.00
18821;BME280;9539;59.332;18.034;2022-07-01T01:23:27;101181.25;;;21.46;100.00
18821;BME280;9539;59.332;18.034;2022-07-01T01:25:53;101174.41;;;21.51;100.00
18821;BME280;9539;59.332;18.034;2022-07-01T01:28:22;101176.94;;;21.53;100.00
18821;BME280;9539;59.332;18.034;2022-07-01T01:30:49;101174.22;;;21.53;100.00
18821;BME280;9539;59.332;18.034;2022-07-01T01:33:18;101165.59;;;21.49;100.00
18821;BME280;9539;59.332;18.034;2022-07-01T01:35:45;101155.41;;;21.43;100.00
18821;BME280;9539;59.332;18.034;2022-07-01T01:38:13;101145.00;;;21.48;100.00
18821;BME280;9539;59.332;18.034;2022-07-01T01:40:40;101155.28;;;21.45;100.00
18821;BME280;9539;59.332;18.034;2022-07-01T01:43:15;101145.00;;;21.48;100.00
18821;BME280;9539;59.332;18.034;2022-07-01T01:45:45;101147.63;;;21.58;100.00
18821;BME280;9539;59.332;18.034;2022-07-01T01:48:14;101140.13;;;21.52;100.00
18821;BME280;9539;59.332;18.034;2022-07-01T01:50:41;101138.44;;;21.51;100.00
18821;BME280;9539;59.332;18.034;2022-07-01T01:53:10;101132.44;;;21.57;100.00
18821;BME280;9539;59.332;18.034;2022-07-01T01:55:38;101125.56;;;21.63;100.00
18821;BME280;9539;59.332;18.034;2022-07-01T01:58:05;101126.94;;;21.67;100.00
18821;BME280;9539;59.332;18.034;2022-07-01T02:00:31;101126.56;;;21.44;100.00
18821;BME280;9539;59.332;18.034;2022-07-01T02:02:58;101123.41;;;21.48;100.00
18821;BME280;9539;59.332;18.034;2022-07-01T02:05:24;101122.16;;;21.61;100.00
18821;BME280;9539;59.332;18.034;2022-07-01T02:07:54;101122.91;;;21.53;100.00
18821;BME280;9539;59.332;18.034;2022-07-01T02:10:22;101129.41;;;21.60;100.00
18821;BME280;9539;59.332;18.034;2022-07-01T02:12:53;101118.31;;;21.63;100.00
18821;BME280;9539;59.332;18.034;2022-07-01T02:15:22;101122.47;;;21.75;100.00
18821;BME280;9539;59.332;18.034;2022-07-01T02:17:52;101127.53;;;21.78;100.00
18821;BME280;9539;59.332;18.034;2022-07-01T02:20:22;101127.00;;;21.75;100.00
18821;BME280;9539;59.332;18.034;2022-07-01T02:22:49;101136.59;;;21.51;100.00
18821;BME280;9539;59.332;18.034;2022-07-01T02:25:17;101127.56;;;21.61;100.00
18821;BME280;9539;59.332;18.034;2022-07-01T02:27:47;101134.63;;;21.79;100.00
18821;BME280;9539;59.332;18.034;2022-07-01T02:30:18;101123.69;;;21.81;100.00
18821;BME280;9539;59.332;18.034;2022-07-01T02:32:46;101128.00;;;21.74;100.00
18821;BME280;9539;59.332;18.034;2022-07-01T02:35:13;101130.25;;;21.61;100.00
18821;BME280;9539;59.332;18.034;2022-07-01T02:37:40;101132.34;;;21.49;100.00
18821;BME280;9539;59.332;18.034;2022-07-01T02:40:07;101134.75;;;21.70;100.00
18821;BME280;9539;59.332;18.034;2022-07-01T02:42:34;101130.47;;;21.67;100.00
18821;BME280;9539;59.332;18.034;2022-07-01T02:45:03;101134.41;;;21.73;100.00
18821;BME280;9539;59.332;18.034;2022-07-01T02:47:35;101118.88;;;21.92;100.00
18821;BME280;9539;59.332;18.034;2022-07-01T02:50:05;101105.19;;;21.68;100.00
18821;BME280;9539;59.332;18.034;2022-07-01T02:52:35;101099.53;;;21.97;100.00
18821;BME280;9539;59.332;18.034;2022-07-01T02:55:06;101111.38;;;22.04;100.00
18821;BME280;9539;59.332;18.034;2022-07-01T02:57:33;101117.63;;;22.05;100.00
18821;BME280;9539;59.332;18.034;2022-07-01T02:59:59;101113.56;;;22.01;100.00
18821;BME280;9539;59.332;18.034;2022-07-01T03:02:26;101112.44;;;22.11;100.00
18821;BME280;9539;59.332;18.034;2022-07-01T03:04:54;101106.19;;;22.11;100.00
18821;BME280;9539;59.332;18.034;2022-07-01T03:07:21;101102.53;;;22.20;100.00
18821;BME280;9539;59.332;18.034;2022-07-01T03:09:51;101124.53;;;22.25;100.00
18821;BME280;9539;59.332;18.034;2022-07-01T03:12:18;101137.38;;;21.97;100.00
18821;BME280;9539;59.332;18.034;2022-07-01T03:14:51;101145.41;;;21.71;100.00
18821;BME280;9539;59.332;18.034;2022-07-01T03:17:18;101137.09;;;21.73;100.00
18821;BME280;9539;59.332;18.034;2022-07-01T03:19:45;101140.13;;;21.70;100.00
18821;BME280;9539;59.332;18.034;2022-07-01T03:22:13;101122.63;;;21.56;100.00
18821;BME280;9539;59.332;18.034;2022-07-01T03:24:52;101103.34;;;21.51;100.00
18821;BME280;9539;59.332;18.034;2022-07-01T03:27:20;101094.16;;;21.44;100.00
18821;BME280;9539;59.332;18.034;2022-07-01T03:29:50;101099.41;;;21.63;100.00
18821;BME280;9539;59.332;18.034;2022-07-01T03:32:18;101092.06;;;21.56;100.00
18821;BME280;9539;59.332;18.034;2022-07-01T03:34:50;101077.56;;;21.57;100.00
18821;BME280;9539;59.332;18.034;2022-07-01T03:37:19;101077.78;;;21.45;100.00
18821;BME280;9539;59.332;18.034;2022-07-01T03:39:47;101071.63;;;21.53;100.00
18821;BME280;9539;59.332;18.034;2022-07-01T03:42:14;101076.34;;;21.33;100.00
18821;BME280;9539;59.332;18.034;2022-07-01T03:44:40;101063.25;;;21.38;100.00
18821;BME280;9539;59.332;18.034;2022-07-01T03:47:09;101061.41;;;21.39;100.00
18821;BME280;9539;59.332;18.034;2022-07-01T03:49:36;101070.31;;;21.39;100.00
18821;BME280;9539;59.332;18.034;2022-07-01T03:52:03;101061.44;;;21.47;100.00
18821;BME280;9539;59.332;18.034;2022-07-01T03:54:31;101058.06;;;21.45;100.00
18821;BME280;9539;59.332;18.034;2022-07-01T03:56:59;101069.00;;;21.43;100.00
18821;BME280;9539;59.332;18.034;2022-07-01T03:59:26;101070.13;;;21.59;100.00
18821;BME280;9539;59.332;18.034;2022-07-01T04:01:53;101067.59;;;21.39;100.00
18821;BME280;9539;59.332;18.034;2022-07-01T04:04:19;101080.09;;;21.40;100.00
18821;BME280;9539;59.332;18.034;2022-07-01T04:06:47;101089.16;;;21.31;100.00
18821;BME280;9539;59.332;18.034;2022-07-01T04:09:15;101087.34;;;21.40;100.00
18821;BME280;9539;59.332;18.034;2022-07-01T04:11:53;101092.16;;;21.28;100.00
18821;BME280;9539;59.332;18.034;2022-07-01T04:14:20;101092.28;;;21.27;100.00
18821;BME280;9539;59.332;18.034;2022-07-01T04:16:47;101077.72;;;21.20;100.00
18821;BME280;9539;59.332;18.034;2022-07-01T04:19:14;101100.94;;;21.30;100.00
18821;BME280;9539;59.332;18.034;2022-07-01T04:21:41;101095.81;;;21.09;100.00
18821;BME280;9539;59.332;18.034;2022-07-01T04:24:25;101094.97;;;21.09;100.00
18821;BME280;9539;59.332;18.034;2022-07-01T04:26:55;101093.63;;;21.13;100.00
18821;BME280;9539;59.332;18.034;2022-07-01T04:29:22;101098.50;;;21.09;100.00
18821;BME280;9539;59.332;18.034;2022-07-01T04:31:48;101098.81;;;21.06;100.00
18821;BME280;9539;59.332;18.034;2022-07-01T04:34:15;101097.97;;;21.06;100.00
18821;BME280;9539;59.332;18.034;2022-07-01T04:36:45;101090.41;;;21.09;100.00
18821;BME280;9539;59.332;18.034;2022-07-01T04:39:11;101095.56;;;21.03;100.00
18821;BME280;9539;59.332;18.034;2022-07-01T04:41:38;101092.13;;;21.10;100.00
18821;BME280;9539;59.332;18.034;2022-07-01T04:44:23;101094.94;;;20.91;100.00
18821;BME280;9539;59.332;18.034;2022-07-01T04:46:50;101089.69;;;20.90;100.00
18821;BME280;9539;59.332;18.034;2022-07-01T04:49:17;101091.25;;;20.92;100.00
18821;BME280;9539;59.332;18.034;2022-07-01T04:51:43;101104.38;;;21.05;100.00
18821;BME280;9539;59.332;18.034;2022-07-01T04:54:10;101091.16;;;20.84;100.00
18821;BME280;9539;59.332;18.034;2022-07-01T04:56:37;101094.69;;;20.85;100.00
18821;BME280;9539;59.332;18.034;2022-07-01T04:59:04;101084.69;;;20.95;100.00
18821;BME280;9539;59.332;18.034;2022-07-01T05:01:32;101078.19;;;20.88;100.00
18821;BME280;9539;59.332;18.034;2022-07-01T05:04:02;101081.84;;;20.96;100.00
18821;BME280;9539;59.332;18.034;2022-07-01T05:06:29;101091.84;;;20.86;100.00
18821;BME280;9539;59.332;18.034;2022-07-01T05:08:59;101102.06;;;20.83;100.00
18821;BME280;9539;59.332;18.034;2022-07-01T05:11:26;101094.38;;;20.88;100.00
18821;BME280;9539;59.332;18.034;2022-07-01T05:13:52;101089.44;;;20.83;100.00
18821;BME280;9539;59.332;18.034;2022-07-01T05:16:20;101082.94;;;20.76;100.00
18821;BME280;9539;59.332;18.034;2022-07-01T05:18:48;101088.13;;;20.87;100.00
18821;BME280;9539;59.332;18.034;2022-07-01T05:21:32;101084.63;;;20.87;100.00
18821;BME280;9539;59.332;18.034;2022-07-01T05:24:19;101078.72;;;20.73;100.00
18821;BME280;9539;59.332;18.034;2022-07-01T05:26:46;101075.81;;;20.85;100.00
18821;BME280;9539;59.332;18.034;2022-07-01T05:29:15;101067.72;;;20.85;100.00
18821;BME280;9539;59.332;18.034;2022-07-01T05:31:42;101070.81;;;20.90;100.00
18821;BME280;9539;59.332;18.034;2022-07-01T05:34:11;101062.84;;;20.88;100.00
18821;BME280;9539;59.332;18.034;2022-07-01T05:36:41;101052.59;;;20.74;100.00
18821;BME280;9539;59.332;18.034;2022-07-01T05:39:07;101053.06;;;20.87;100.00
18821;BME280;9539;59.332;18.034;2022-07-01T05:41:35;101055.50;;;20.81;100.00
18821;BME280;9539;59.332;18.034;2022-07-01T05:44:02;101062.41;;;20.93;100.00
18821;BME280;9539;59.332;18.034;2022-07-01T05:46:28;101063.50;;;21.00;100.00
18821;BME280;9539;59.332;18.034;2022-07-01T05:48:55;101053.53;;;21.00;100.00
18821;BME280;9539;59.332;18.034;2022-07-01T05:51:23;101067.72;;;21.02;100.00
18821;BME280;9539;59.332;18.034;2022-07-01T05:53:50;101059.16;;;21.07;100.00
18821;BME280;9539;59.332;18.034;2022-07-01T05:56:20;101071.28;;;21.03;100.00
18821;BME280;9539;59.332;18.034;2022-07-01T05:58:49;101066.34;;;20.98;100.00
18821;BME280;9539;59.332;18.034;2022-07-01T06:01:15;101054.19;;;21.12;100.00
18821;BME280;9539;59.332;18.034;2022-07-01T06:03:42;101066.78;;;21.21;100.00
18821;BME280;9539;59.332;18.034;2022-07-01T06:06:09;101053.34;;;21.11;100.00
18821;BME280;9539;59.332;18.034;2022-07-01T06:08:37;101041.94;;;21.00;100.00
18821;BME280;9539;59.332;18.034;2022-07-01T06:11:06;101063.78;;;21.24;100.00
18821;BME280;9539;59.332;18.034;2022-07-01T06:13:32;101052.03;;;21.33;100.00
18821;BME280;9539;59.332;18.034;2022-07-01T06:15:59;101052.13;;;21.24;100.00
18821;BME280;9539;59.332;18.034;2022-07-01T06:18:26;101051.66;;;21.28;100.00
18821;BME280;9539;59.332;18.034;2022-07-01T06:20:55;101051.44;;;21.22;100.00
18821;BME280;9539;59.332;18.034;2022-07-01T06:23:21;101043.94;;;21.16;100.00
18821;BME280;9539;59.332;18.034;2022-07-01T06:25:53;101040.53;;;21.13;100.00
18821;BME280;9539;59.332;18.034;2022-07-01T06:28:19;101039.25;;;21.18;100.00
18821;BME280;9539;59.332;18.034;2022-07-01T06:30:46;101035.00;;;21.33;100.00
18821;BME280;9539;59.332;18.034;2022-07-01T06:33:15;101048.38;;;21.07;100.00
18821;BME280;9539;59.332;18.034;2022-07-01T06:35:41;101031.19;;;21.08;100.00
18821;BME280;9539;59.332;18.034;2022-07-01T06:38:08;101047.25;;;21.27;100.00
18821;BME280;9539;59.332;18.034;2022-07-01T06:40:35;101039.66;;;21.13;100.00
18821;BME280;9539;59.332;18.034;2022-07-01T06:43:03;101037.16;;;21.11;100.00
18821;BME280;9539;59.332;18.034;2022-07-01T06:45:30;101038.41;;;21.17;100.00
18821;BME280;9539;59.332;18.034;2022-07-01T06:47:57;101038.94;;;21.21;100.00
18821;BME280;9539;59.332;18.034;2022-07-01T06:50:24;101036.72;;;21.16;100.00
18821;BME280;9539;59.332;18.034;2022-07-01T06:52:50;101038.41;;;21.17;100.00
18821;BME280;9539;59.332;18.034;2022-07-01T06:55:17;101042.97;;;21.07;100.00
18821;BME280;9539;59.332;18.034;2022-07-01T06:57:44;101039.50;;;21.24;100.00
18821;BME280;9539;59.332;18.034;2022-07-01T07:00:13;101041.38;;;21.14;100.00
18821;BME280;9539;59.332;18.034;2022-07-01T07:02:40;101038.09;;;21.20;100.00
18821;BME280;9539;59.332;18.034;2022-07-01T07:05:07;101036.72;;;21.16;100.00
18821;BME280;9539;59.332;18.034;2022-07-01T07:07:34;101043.78;;;20.99;100.00
18821;BME280;9539;59.332;18.034;2022-07-01T07:10:04;101040.13;;;21.08;100.00
18821;BME280;9539;59.332;18.034;2022-07-01T07:12:33;101042.97;;;21.07;100.00
18821;BME280;9539;59.332;18.034;2022-07-01T07:14:59;101032.75;;;20.93;100.00
18821;BME280;9539;59.332;18.034;2022-07-01T07:17:30;101038.66;;;20.96;100.00
18821;BME280;9539;59.332;18.034;2022-07-01T07:19:56;101015.16;;;20.89;100.00
18821;BME280;9539;59.332;18.034;2022-07-01T07:22:25;101048.69;;;20.86;100.00
18821;BME280;9539;59.332;18.034;2022-07-01T07:24:52;101044.44;;;20.84;100.00
18821;BME280;9539;59.332;18.034;2022-07-01T07:27:19;101032.03;;;20.91;100.00
18821;BME280;9539;59.332;18.034;2022-07-01T07:29:45;101033.84;;;21.00;100.00
18821;BME280;9539;59.332;18.034;2022-07-01T07:32:14;101040.13;;;20.91;100.00
18821;BME280;9539;59.332;18.034;2022-07-01T07:34:43;101036.13;;;20.95;100.00
18821;BME280;9539;59.332;18.034;2022-07-01T07:37:09;101042.50;;;20.94;100.00
18821;BME280;9539;59.332;18.034;2022-07-01T07:39:36;101057.47;;;20.88;100.00
18821;BME280;9539;59.332;18.034;2022-07-01T07:42:05;101061.47;;;20.84;100.00
18821;BME280;9539;59.332;18.034;2022-07-01T07:44:32;101054.00;;;20.78;100.00
18821;BME280;9539;59.332;18.034;2022-07-01T07:46:59;101053.78;;;20.89;100.00
18821;BME280;9539;59.332;18.034;2022-07-01T07:49:25;101062.63;;;20.82;100.00
18821;BME280;9539;59.332;18.034;2022-07-01T07:51:56;101065.72;;;20.87;100.00
18821;BME280;9539;59.332;18.034;2022-07-01T07:54:25;101076.59;;;20.95;100.00
18821;BME280;9539;59.332;18.034;2022-07-01T07:56:52;101073.75;;;21.14;100.00
18821;BME280;9539;59.332;18.034;2022-07-01T07:59:19;101063.03;;;21.04;100.00
18821;BME280;9539;59.332;18.034;2022-07-01T08:01:45;101066.75;;;21.03;100.00
18821;BME280;9539;59.332;18.034;2022-07-01T08:04:12;101080.94;;;21.05;100.00
18821;BME280;9539;59.332;18.034;2022-07-01T08:06:39;101066.88;;;21.02;100.00
18821;BME280;9539;59.332;18.034;2022-07-01T08:09:09;101080.94;;;21.05;100.00
18821;BME280;9539;59.332;18.034;2022-07-01T08:11:36;101075.81;;;20.85;100.00
18821;BME280;9539;59.332;18.034;2022-07-01T08:14:04;101081.66;;;20.80;100.00
18821;BME280;9539;59.332;18.034;2022-07-01T08:16:31;101089.91;;;20.79;100.00
18821;BME280;9539;59.332;18.034;2022-07-01T08:19:01;101105.09;;;20.80;100.00
18821;BME280;9539;59.332;18.034;2022-07-01T08:21:31;101073.13;;;20.57;100.00
18821;BME280;9539;59.332;18.034;2022-07-01T08:23:59;101092.84;;;20.58;100.00
18821;BME280;9539;59.332;18.034;2022-07-01T08:26:27;101092.72;;;20.59;100.00
18821;BME280;9539;59.332;18.034;2022-07-01T08:28:56;101101.91;;;20.66;100.00
18821;BME280;9539;59.332;18.034;2022-07-01T08:31:23;101105.28;;;20.68;100.00
18821;BME280;9539;59.332;18.034;2022-07-01T08:33:49;101109.66;;;20.69;100.00
18821;BME280;9539;59.332;18.034;2022-07-01T08:36:16;101105.13;;;20.70;100.00
18821;BME280;9539;59.332;18.034;2022-07-01T08:38:43;101103.75;;;20.66;100.00
18821;BME280;9539;59.332;18.034;2022-07-01T08:41:09;101101.91;;;20.66;100.00
18821;BME280;9539;59.332;18.034;2022-07-01T08:43:37;101101.59;;;20.69;100.00
18821;BME280;9539;59.332;18.034;2022-07-01T08:46:07;101095.91;;;20.72;100.00
18821;BME280;9539;59.332;18.034;2022-07-01T08:48:36;101092.25;;;20.64;100.00
18821;BME280;9539;59.332;18.034;2022-07-01T08:51:03;101101.53;;;20.79;100.00
18821;BME280;9539;59.332;18.034;2022-07-01T08:53:31;101101.94;;;20.84;100.00
18821;BME280;9539;59.332;18.034;2022-07-01T08:55:58;101105.69;;;20.73;100.00
18821;BME280;9539;59.332;18.034;2022-07-01T08:58:43;101124.50;;;20.83;100.00
18821;BME280;9539;59.332;18.034;2022-07-01T09:01:15;101124.31;;;20.67;100.00
18821;BME280;9539;59.332;18.034;2022-07-01T09:03:42;101117.88;;;20.78;100.00
18821;BME280;9539;59.332;18.034;2022-07-01T09:06:12;101125.34;;;20.84;100.00
18821;BME280;9539;59.332;18.034;2022-07-01T09:08:42;101122.53;;;20.85;100.00
18821;BME280;9539;59.332;18.034;2022-07-01T09:11:18;101123.97;;;20.80;100.00
18821;BME280;9539;59.332;18.034;2022-07-01T09:14:07;101118.47;;;20.71;100.00
18821;BME280;9539;59.332;18.034;2022-07-01T09:16:40;101122.66;;;20.84;100.00
18821;BME280;9539;59.332;18.034;2022-07-01T09:19:07;101123.19;;;20.87;100.00
18821;BME280;9539;59.332;18.034;2022-07-01T09:21:34;101125.50;;;21.09;100.00
18821;BME280;9539;59.332;18.034;2022-07-01T09:24:04;101121.00;;;21.28;100.00
18821;BME280;9539;59.332;18.034;2022-07-01T09:26:34;101125.38;;;21.29;100.00
18821;BME280;9539;59.332;18.034;2022-07-01T09:29:04;101126.00;;;21.23;100.00
18821;BME280;9539;59.332;18.034;2022-07-01T09:31:47;101127.78;;;21.32;100.00
18821;BME280;9539;59.332;18.034;2022-07-01T09:34:14;101129.16;;;21.18;100.00
18821;BME280;9539;59.332;18.034;2022-07-01T09:36:41;101126.72;;;21.42;100.00
18821;BME280;9539;59.332;18.034;2022-07-01T09:39:20;101130.25;;;21.61;100.00
18821;BME280;9539;59.332;18.034;2022-07-01T09:41:47;101136.81;;;21.76;100.00
18821;BME280;9539;59.332;18.034;2022-07-01T09:44:14;101130.16;;;21.88;100.00
18821;BME280;9539;59.332;18.034;2022-07-01T09:46:55;101128.41;;;21.97;100.00
18821;BME280;9539;59.332;18.034;2022-07-01T09:49:23;101125.44;;;21.90;100.00
18821;BME280;9539;59.332;18.034;2022-07-01T09:51:52;101118.47;;;22.23;100.00
18821;BME280;9539;59.332;18.034;2022-07-01T09:54:19;101113.28;;;22.38;100.00
18821;BME280;9539;59.332;18.034;2022-07-01T09:56:49;101114.22;;;22.54;100.00
18821;BME280;9539;59.332;18.034;2022-07-01T09:59:15;101116.94;;;22.62;100.00
18821;BME280;9539;59.332;18.034;2022-07-01T10:01:43;101105.75;;;22.83;100.00
18821;BME280;9539;59.332;18.034;2022-07-01T10:04:15;101095.00;;;22.99;100.00
18821;BME280;9539;59.332;18.034;2022-07-01T10:07:02;101093.69;;;23.20;100.00
18821;BME280;9539;59.332;18.034;2022-07-01T10:09:50;101106.00;;;23.14;100.00
18821;BME280;9539;59.332;18.034;2022-07-01T10:12:39;101103.81;;;22.67;100.00
18821;BME280;9539;59.332;18.034;2022-07-01T10:15:09;101104.63;;;23.02;100.00
18821;BME280;9539;59.332;18.034;2022-07-01T10:17:37;101098.84;;;22.97;100.00
18821;BME280;9539;59.332;18.034;2022-07-01T10:20:11;101100.06;;;22.94;100.00
18821;BME280;9539;59.332;18.034;2022-07-01T10:22:38;101101.91;;;22.94;100.00
18821;BME280;9539;59.332;18.034;2022-07-01T10:25:35;101091.41;;;22.57;100.00
18821;BME280;9539;59.332;18.034;2022-07-01T10:28:12;101096.00;;;22.64;100.00
18821;BME280;9539;59.332;18.034;2022-07-01T10:30:48;101093.06;;;22.84;100.00
18821;BME280;9539;59.332;18.034;2022-07-01T10:33:33;101089.22;;;22.94;100.00
18821;BME280;9539;59.332;18.034;2022-07-01T10:36:17;101090.97;;;23.20;100.00
18821;BME280;9539;59.332;18.034;2022-07-01T10:39:09;101079.09;;;23.21;100.00
18821;BME280;9539;59.332;18.034;2022-07-01T10:41:41;101080.69;;;23.39;100.00
18821;BME280;9539;59.332;18.034;2022-07-01T10:44:11;101091.22;;;23.50;100.00
18821;BME280;9539;59.332;18.034;2022-07-01T10:46:42;101076.97;;;23.81;100.00
18821;BME280;9539;59.332;18.034;2022-07-01T10:49:14;101084.09;;;23.66;100.00
18821;BME280;9539;59.332;18.034;2022-07-01T10:51:49;101083.22;;;23.89;100.00
18821;BME280;9539;59.332;18.034;2022-07-01T10:57:38;101077.75;;;24.30;100.00
18821;BME280;9539;59.332;18.034;2022-07-01T11:00:29;101072.66;;;24.27;100.00
18821;BME280;9539;59.332;18.034;2022-07-01T11:03:19;101076.25;;;24.19;100.00
18821;BME280;9539;59.332;18.034;2022-07-01T11:05:58;101079.50;;;23.82;100.00
18821;BME280;9539;59.332;18.034;2022-07-01T11:08:26;101075.78;;;23.92;100.00
18821;BME280;9539;59.332;18.034;2022-07-01T11:10:57;101081.53;;;23.97;100.00
18821;BME280;9539;59.332;18.034;2022-07-01T11:13:27;101081.81;;;24.18;100.00
18821;BME280;9539;59.332;18.034;2022-07-01T11:15:54;101079.47;;;24.15;100.00
18821;BME280;9539;59.332;18.034;2022-07-01T11:18:21;101071.22;;;24.55;100.00
18821;BME280;9539;59.332;18.034;2022-07-01T11:20:49;101081.44;;;24.76;100.00
18821;BME280;9539;59.332;18.034;2022-07-01T11:23:15;101078.41;;;24.40;100.00
18821;BME280;9539;59.332;18.034;2022-07-01T11:25:46;101093.69;;;24.17;100.00
18821;BME280;9539;59.332;18.034;2022-07-01T11:28:13;101083.84;;;24.32;100.00
18821;BME280;9539;59.332;18.034;2022-07-01T11:30:40;101079.63;;;24.05;100.00
18821;BME280;9539;59.332;18.034;2022-07-01T11:33:08;101075.91;;;24.06;100.00
18821;BME280;9539;59.332;18.034;2022-07-01T11:35:38;101086.41;;;24.17;100.00
18821;BME280;9539;59.332;18.034;2022-07-01T11:38:23;101077.00;;;24.44;100.00
18821;BME280;9539;59.332;18.034;2022-07-01T11:41:18;101081.22;;;24.55;100.00
18821;BME280;9539;59.332;18.034;2022-07-01T11:43:48;101083.84;;;24.71;100.00
18821;BME280;9539;59.332;18.034;2022-07-01T11:46:16;101084.31;;;24.91;100.00
18821;BME280;9539;59.332;18.034;2022-07-01T11:48:45;101080.28;;;24.70;100.00
18821;BME280;9539;59.332;18.034;2022-07-01T11:51:16;101082.78;;;24.88;100.00
18821;BME280;9539;59.332;18.034;2022-07-01T11:53:46;101071.53;;;24.60;100.00
18821;BME280;9539;59.332;18.034;2022-07-01T11:56:28;101083.78;;;24.87;100.00
18821;BME280;9539;59.332;18.034;2022-07-01T11:58:55;101082.94;;;24.95;100.00
18821;BME280;9539;59.332;18.034;2022-07-01T12:01:28;101084.44;;;24.58;100.00
18821;BME280;9539;59.332;18.034;2022-07-01T12:03:56;101086.88;;;24.76;100.00
18821;BME280;9539;59.332;18.034;2022-07-01T12:06:25;101091.88;;;25.03;100.00
18821;BME280;9539;59.332;18.034;2022-07-01T12:08:53;101083.34;;;24.76;100.00
18821;BME280;9539;59.332;18.034;2022-07-01T12:11:27;101085.31;;;24.90;100.00
18821;BME280;9539;59.332;18.034;2022-07-01T12:13:57;101083.88;;;25.02;100.00
18821;BME280;9539;59.332;18.034;2022-07-01T12:16:24;101089.34;;;24.63;100.00
18821;BME280;9539;59.332;18.034;2022-07-01T12:18:58;101089.81;;;25.05;100.00
18821;BME280;9539;59.332;18.034;2022-07-01T12:21:27;101087.84;;;24.99;100.00
18821;BME280;9539;59.332;18.034;2022-07-01T12:24:08;101084.44;;;24.50;100.00
18821;BME280;9539;59.332;18.034;2022-07-01T12:26:47;101083.28;;;24.84;100.00
18821;BME280;9539;59.332;18.034;2022-07-01T12:29:18;101082.44;;;24.91;100.00
18821;BME280;9539;59.332;18.034;2022-07-01T12:31:57;101090.25;;;24.94;100.00
18821;BME280;9539;59.332;18.034;2022-07-01T12:34:37;101080.06;;;24.88;100.00
18821;BME280;9539;59.332;18.034;2022-07-01T12:37:08;101085.16;;;24.91;100.00
18821;BME280;9539;59.332;18.034;2022-07-01T12:39:47;101079.19;;;24.96;100.00
18821;BME280;9539;59.332;18.034;2022-07-01T12:42:23;101081.78;;;25.20;100.00
18821;BME280;9539;59.332;18.034;2022-07-01T12:44:51;101085.78;;;25.01;100.00
18821;BME280;9539;59.332;18.034;2022-07-01T12:47:19;101070.78;;;25.14;100.00
18821;BME280;9539;59.332;18.034;2022-07-01T12:49:46;101077.59;;;25.32;100.00
18821;BME280;9539;59.332;18.034;2022-07-01T12:52:23;101080.06;;;25.19;100.00
18821;BME280;9539;59.332;18.034;2022-07-01T12:54:50;101080.00;;;24.65;100.00